createdAt,value
2022-07-27T00:00:46.496Z,92.38
2022-07-27T00:01:51.112Z,92.57
2022-07-27T00:02:51.396Z,92.38
2022-07-27T00:03:46.322Z,92.67
2022-07-27T00:04:46.237Z,92.67
2022-07-27T00:05:46.157Z,92.96
2022-07-27T00:06:46.064Z,92.63
2022-07-27T00:07:46.061Z,92.96
2022-07-27T00:08:46.000Z,92.77
2022-07-27T00:09:45.938Z,92.96
2022-07-27T00:10:45.919Z,92.72
2022-07-27T00:11:45.858Z,93.10
2022-07-27T00:12:45.802Z,93.20
2022-07-27T00:13:45.770Z,93.10
2022-07-27T00:14:45.690Z,93.10
2022-07-27T00:15:45.652Z,92.72
2022-07-27T00:16:45.722Z,93.10
2022-07-27T00:17:45.527Z,93.30
2022-07-27T00:18:45.514Z,93.20
2022-07-27T00:19:45.428Z,93.30
2022-07-27T00:20:45.396Z,93.49
2022-07-27T00:21:46.279Z,93.39
2022-07-27T00:22:45.310Z,93.01
2022-07-27T00:23:45.264Z,92.82
2022-07-27T00:24:45.232Z,92.72
2022-07-27T00:25:45.181Z,92.82
2022-07-27T00:26:45.129Z,92.82
2022-07-27T00:27:45.045Z,92.82
2022-07-27T00:28:45.006Z,93.10
2022-07-27T00:29:44.948Z,92.82
2022-07-27T00:30:44.937Z,92.91
2022-07-27T00:31:44.925Z,93.30
2022-07-27T00:32:44.825Z,93.30
2022-07-27T00:33:44.782Z,93.30
2022-07-27T00:34:44.690Z,93.49
2022-07-27T00:35:44.681Z,93.68
2022-07-27T00:36:44.606Z,93.59
2022-07-27T00:37:44.576Z,94.07
2022-07-27T00:38:44.532Z,93.68
2022-07-27T00:39:44.463Z,93.49
2022-07-27T00:40:44.440Z,93.68
2022-07-27T00:41:44.366Z,93.97
2022-07-27T00:42:44.320Z,93.97
2022-07-27T00:43:44.281Z,94.35
2022-07-27T00:44:44.207Z,94.45
2022-07-27T00:45:44.204Z,93.68
2022-07-27T00:46:44.169Z,93.30
2022-07-27T00:47:44.072Z,93.87
2022-07-27T00:48:44.108Z,93.49
2022-07-27T00:49:43.972Z,94.26
2022-07-27T00:50:43.929Z,94.45
2022-07-27T00:51:43.973Z,94.35
2022-07-27T00:52:43.795Z,94.64
2022-07-27T00:53:43.784Z,93.97
2022-07-27T00:54:43.717Z,94.16
2022-07-27T00:55:43.708Z,93.87
2022-07-27T00:56:43.597Z,93.97
2022-07-27T00:57:58.162Z,93.87
2022-07-27T00:58:43.563Z,94.21
2022-07-27T00:59:43.479Z,94.26
2022-07-27T01:00:43.432Z,93.87
2022-07-27T01:01:43.526Z,94.49
2022-07-27T01:02:43.965Z,93.87
2022-07-27T01:03:43.305Z,94.79
2022-07-27T01:04:43.213Z,94.35
2022-07-27T01:05:44.159Z,94.54
2022-07-27T01:06:43.117Z,94.83
2022-07-27T01:07:43.072Z,94.49
2022-07-27T01:08:43.040Z,94.40
2022-07-27T01:09:42.965Z,94.21
2022-07-27T01:10:42.928Z,94.40
2022-07-27T01:11:42.898Z,95.26
2022-07-27T01:12:42.851Z,94.98
2022-07-27T01:13:42.778Z,94.69
2022-07-27T01:14:42.734Z,94.69
2022-07-27T01:15:42.779Z,94.88
2022-07-27T01:16:42.630Z,94.88
2022-07-27T01:17:42.563Z,95.07
2022-07-27T01:18:42.559Z,94.88
2022-07-27T01:19:42.480Z,94.88
2022-07-27T01:20:42.444Z,94.88
2022-07-27T01:21:42.356Z,94.98
2022-07-27T01:22:42.351Z,95.07
2022-07-27T01:23:42.285Z,95.55
2022-07-27T01:24:42.231Z,95.65
2022-07-27T01:25:42.165Z,95.36
2022-07-27T01:26:42.110Z,95.46
2022-07-27T01:27:42.126Z,95.26
2022-07-27T01:28:42.057Z,95.75
2022-07-27T01:29:41.984Z,95.46
2022-07-27T01:30:41.925Z,95.36
2022-07-27T01:31:41.938Z,95.36
2022-07-27T01:32:41.830Z,95.46
2022-07-27T01:33:41.799Z,95.36
2022-07-27T01:34:41.749Z,96.42
2022-07-27T01:35:41.688Z,95.65
2022-07-27T01:36:41.625Z,95.26
2022-07-27T01:37:41.599Z,95.36
2022-07-27T01:38:41.533Z,96.13
2022-07-27T01:39:41.481Z,95.55
2022-07-27T01:40:41.469Z,96.13
2022-07-27T01:41:41.404Z,95.75
2022-07-27T01:42:41.340Z,95.75
2022-07-27T01:43:41.292Z,96.32
2022-07-27T01:44:41.234Z,96.32
2022-07-27T01:45:41.193Z,95.75
2022-07-27T01:46:41.246Z,95.94
2022-07-27T01:47:41.087Z,96.13
2022-07-27T01:48:41.078Z,96.22
2022-07-27T01:49:41.377Z,96.51
2022-07-27T01:50:40.956Z,95.75
2022-07-27T01:51:40.930Z,96.03
2022-07-27T01:52:40.837Z,96.61
2022-07-27T01:53:40.807Z,96.80
2022-07-27T01:54:40.740Z,96.22
2022-07-27T01:55:40.727Z,96.51
2022-07-27T01:56:40.663Z,96.85
2022-07-27T01:57:40.592Z,96.18
2022-07-27T01:58:40.577Z,96.80
2022-07-27T01:59:40.474Z,96.56
2022-07-27T02:00:40.479Z,97.04
2022-07-27T02:01:40.461Z,97.28
2022-07-27T02:02:40.336Z,96.47
2022-07-27T02:03:40.303Z,97.04
2022-07-27T02:04:40.277Z,96.94
2022-07-27T02:05:40.285Z,97.04
2022-07-27T02:06:40.133Z,96.37
2022-07-27T02:07:40.074Z,96.85
2022-07-27T02:08:40.050Z,96.56
2022-07-27T02:09:39.974Z,96.85
2022-07-27T02:10:39.976Z,96.56
2022-07-27T02:11:39.923Z,97.14
2022-07-27T02:12:39.860Z,96.75
2022-07-27T02:13:39.800Z,97.42
2022-07-27T02:14:39.722Z,96.37
2022-07-27T02:15:43.269Z,97.23
2022-07-27T02:16:39.704Z,97.14
2022-07-27T02:17:39.597Z,97.71
2022-07-27T02:18:39.536Z,97.23
2022-07-27T02:19:39.517Z,97.14
2022-07-27T02:20:39.472Z,97.52
2022-07-27T02:21:39.388Z,97.23
2022-07-27T02:22:39.327Z,98.28
2022-07-27T02:23:39.292Z,97.33
2022-07-27T02:24:39.238Z,97.90
2022-07-27T02:25:39.169Z,97.42
2022-07-27T02:26:39.152Z,97.33
2022-07-27T02:27:39.237Z,97.33
2022-07-27T02:28:39.017Z,98.10
2022-07-27T02:29:38.992Z,98.00
2022-07-27T02:30:39.034Z,97.81
2022-07-27T02:31:38.869Z,98.19
2022-07-27T02:32:38.889Z,97.81
2022-07-27T02:33:38.761Z,97.71
2022-07-27T02:34:38.735Z,98.10
2022-07-27T02:35:38.715Z,97.90
2022-07-27T02:36:38.624Z,98.10
2022-07-27T02:37:38.575Z,97.42
2022-07-27T02:38:38.559Z,97.81
2022-07-27T02:39:38.489Z,97.90
2022-07-27T02:40:38.455Z,98.00
2022-07-27T02:41:38.416Z,98.48
2022-07-27T02:42:38.327Z,98.19
2022-07-27T02:43:38.290Z,98.10
2022-07-27T02:44:38.246Z,98.00
2022-07-27T02:45:38.218Z,98.19
2022-07-27T02:46:38.225Z,98.28
2022-07-27T02:47:38.077Z,98.19
2022-07-27T02:48:38.062Z,98.28
2022-07-27T02:49:37.975Z,98.19
2022-07-27T02:50:37.956Z,98.38
2022-07-27T02:51:39.485Z,98.28
2022-07-27T02:52:37.825Z,98.00
2022-07-27T02:53:37.798Z,98.19
2022-07-27T02:54:37.745Z,98.10
2022-07-27T02:55:37.679Z,98.48
2022-07-27T02:56:37.670Z,98.38
2022-07-27T02:57:44.376Z,98.33
2022-07-27T02:58:37.575Z,98.38
2022-07-27T02:59:37.486Z,98.05
2022-07-27T03:00:37.424Z,98.24
2022-07-27T03:01:37.492Z,98.28
2022-07-27T03:02:37.356Z,98.33
2022-07-27T03:03:37.416Z,98.10
2022-07-27T03:04:37.259Z,98.33
2022-07-27T03:05:37.173Z,97.90
2022-07-27T03:06:37.159Z,98.28
2022-07-27T03:07:37.075Z,98.33
2022-07-27T03:08:37.045Z,98.05
2022-07-27T03:09:36.996Z,98.57
2022-07-27T03:10:36.940Z,98.43
2022-07-27T03:11:36.898Z,98.14
2022-07-27T03:12:36.829Z,98.38
2022-07-27T03:13:36.778Z,97.95
2022-07-27T03:14:36.755Z,98.14
2022-07-27T03:15:36.708Z,97.85
2022-07-27T03:16:36.652Z,97.95
2022-07-27T03:17:36.573Z,98.24
2022-07-27T03:18:36.525Z,98.52
2022-07-27T03:19:36.495Z,98.43
2022-07-27T03:20:36.446Z,98.52
2022-07-27T03:21:36.382Z,98.62
2022-07-27T03:22:36.346Z,98.81
2022-07-27T03:23:36.291Z,98.62
2022-07-27T03:24:36.225Z,98.24
2022-07-27T03:25:36.148Z,98.72
2022-07-27T03:26:36.128Z,98.72
2022-07-27T03:27:36.071Z,98.14
2022-07-27T03:28:36.041Z,98.33
2022-07-27T03:29:35.946Z,98.62
2022-07-27T03:30:35.989Z,98.62
2022-07-27T03:31:35.899Z,98.81
2022-07-27T03:32:35.814Z,98.52
2022-07-27T03:33:35.799Z,98.52
2022-07-27T03:34:35.712Z,98.05
2022-07-27T03:35:35.694Z,99.10
2022-07-27T03:36:35.633Z,99.29
2022-07-27T03:37:35.572Z,99.10
2022-07-27T03:38:35.542Z,99.48
2022-07-27T03:39:35.477Z,99.19
2022-07-27T03:40:35.450Z,99.10
2022-07-27T03:41:35.379Z,99.10
2022-07-27T03:42:35.345Z,99.48
2022-07-27T03:43:35.283Z,98.81
2022-07-27T03:44:35.203Z,99.19
2022-07-27T03:45:35.239Z,99.29
2022-07-27T03:46:35.114Z,99.29
2022-07-27T03:47:35.057Z,99.39
2022-07-27T03:48:35.061Z,99.10
2022-07-27T03:49:35.047Z,99.10
2022-07-27T03:50:34.921Z,99.19
2022-07-27T03:51:34.893Z,99.10
2022-07-27T03:52:34.844Z,99.29
2022-07-27T03:53:34.789Z,99.19
2022-07-27T03:54:34.701Z,99.48
2022-07-27T03:55:34.688Z,99.77
2022-07-27T03:56:34.626Z,99.48
2022-07-27T03:57:34.544Z,99.10
2022-07-27T03:58:34.515Z,99.29
2022-07-27T03:59:34.454Z,99.39
2022-07-27T04:00:34.429Z,99.29
2022-07-27T04:01:35.010Z,99.19
2022-07-27T04:02:34.379Z,99.24
2022-07-27T04:03:34.301Z,99.99
2022-07-27T04:04:34.230Z,99.58
2022-07-27T04:05:34.167Z,99.39
2022-07-27T04:06:34.101Z,99.96
2022-07-27T04:07:34.077Z,99.91
2022-07-27T04:08:34.017Z,99.87
2022-07-27T04:09:33.978Z,99.99
2022-07-27T04:10:33.893Z,99.91
2022-07-27T04:11:33.886Z,99.82
2022-07-27T04:12:33.817Z,99.87
2022-07-27T04:13:33.784Z,99.99
2022-07-27T04:14:33.703Z,99.72
2022-07-27T04:15:33.691Z,99.82
2022-07-27T04:16:36.252Z,99.99
2022-07-27T04:17:56.221Z,99.99
2022-07-27T04:18:33.483Z,99.99
2022-07-27T04:19:33.438Z,99.99
2022-07-27T04:20:33.439Z,99.99
2022-07-27T04:21:33.698Z,99.99
2022-07-27T04:22:33.346Z,99.99
2022-07-27T04:23:37.979Z,99.99
2022-07-27T04:24:33.208Z,99.99
2022-07-27T04:25:33.210Z,99.99
2022-07-27T04:26:33.123Z,99.99
2022-07-27T04:27:33.071Z,99.99
2022-07-27T04:28:33.006Z,99.99
2022-07-27T04:29:32.957Z,99.99
2022-07-27T04:30:32.944Z,99.99
2022-07-27T04:31:32.908Z,99.99
2022-07-27T04:32:32.808Z,99.99
2022-07-27T04:33:32.755Z,99.99
2022-07-27T04:34:32.695Z,99.99
2022-07-27T04:35:32.618Z,99.68
2022-07-27T04:36:32.610Z,99.99
2022-07-27T04:37:32.684Z,99.99
2022-07-27T04:38:32.507Z,99.99
2022-07-27T04:39:32.480Z,99.99
2022-07-27T04:40:41.871Z,99.99
2022-07-27T04:41:32.322Z,99.99
2022-07-27T04:42:32.260Z,99.87
2022-07-27T04:43:32.222Z,99.99
2022-07-27T04:44:32.158Z,99.99
2022-07-27T04:45:32.190Z,99.96
2022-07-27T04:46:32.127Z,99.99
2022-07-27T04:47:32.013Z,99.99
2022-07-27T04:48:32.010Z,99.99
2022-07-27T04:49:31.916Z,99.99
2022-07-27T04:50:31.856Z,99.87
2022-07-27T04:51:34.699Z,99.96
2022-07-27T04:52:31.752Z,99.96
2022-07-27T04:53:31.715Z,99.99
2022-07-27T04:54:31.667Z,99.99
2022-07-27T04:55:31.614Z,99.87
2022-07-27T04:56:31.552Z,99.77
2022-07-27T04:57:31.592Z,99.87
2022-07-27T04:58:31.449Z,99.99
2022-07-27T04:59:31.400Z,99.87
2022-07-27T05:00:31.394Z,99.99
2022-07-27T05:01:35.163Z,99.87
2022-07-27T05:02:31.286Z,99.77
2022-07-27T05:03:31.211Z,99.99
2022-07-27T05:04:31.218Z,99.99
2022-07-27T05:05:31.100Z,99.99
2022-07-27T05:06:31.044Z,99.96
2022-07-27T05:07:31.012Z,99.99
2022-07-27T05:08:30.945Z,99.99
2022-07-27T05:09:30.896Z,99.99
2022-07-27T05:10:30.860Z,99.96
2022-07-27T05:11:30.793Z,99.99
2022-07-27T05:12:30.742Z,99.58
2022-07-27T05:13:30.705Z,99.48
2022-07-27T05:14:30.660Z,99.29
2022-07-27T05:15:55.008Z,99.48
2022-07-27T05:16:30.588Z,99.68
2022-07-27T05:17:30.490Z,99.48
2022-07-27T05:18:30.439Z,99.58
2022-07-27T05:19:40.709Z,99.77
2022-07-27T05:20:30.357Z,99.48
2022-07-27T05:21:30.287Z,99.29
2022-07-27T05:22:30.242Z,99.99
2022-07-27T05:23:30.190Z,99.48
2022-07-27T05:24:30.139Z,99.39
2022-07-27T05:25:30.106Z,99.77
2022-07-27T05:26:30.037Z,99.68
2022-07-27T05:27:29.987Z,99.48
2022-07-27T05:28:29.942Z,99.48
2022-07-27T05:29:29.885Z,99.48
2022-07-27T05:30:29.852Z,99.10
2022-07-27T05:31:29.837Z,99.10
2022-07-27T05:32:29.748Z,99.01
2022-07-27T05:33:29.690Z,99.05
2022-07-27T05:34:29.634Z,99.19
2022-07-27T05:35:29.614Z,99.34
2022-07-27T05:36:29.535Z,99.05
2022-07-27T05:37:29.484Z,99.05
2022-07-27T05:38:29.433Z,99.44
2022-07-27T05:39:29.380Z,99.24
2022-07-27T05:40:29.349Z,98.67
2022-07-27T05:41:29.280Z,98.38
2022-07-27T05:42:29.231Z,98.38
2022-07-27T05:43:29.198Z,98.77
2022-07-27T05:44:29.138Z,98.57
2022-07-27T05:45:29.113Z,98.19
2022-07-27T05:46:32.665Z,98.10
2022-07-27T05:47:28.982Z,98.57
2022-07-27T05:48:28.934Z,98.43
2022-07-27T05:49:28.942Z,97.90
2022-07-27T05:50:28.887Z,97.86
2022-07-27T05:51:28.783Z,97.86
2022-07-27T05:52:28.746Z,97.95
2022-07-27T05:53:28.680Z,98.05
2022-07-27T05:54:28.629Z,98.24
2022-07-27T05:55:28.580Z,97.38
2022-07-27T05:56:28.529Z,97.76
2022-07-27T05:57:28.493Z,97.19
2022-07-27T05:58:28.430Z,96.99
2022-07-27T05:59:28.378Z,97.47
2022-07-27T06:00:28.444Z,96.99
2022-07-27T06:01:28.330Z,97.09
2022-07-27T06:02:28.247Z,97.19
2022-07-27T06:03:28.263Z,97.47
2022-07-27T06:04:28.132Z,97.47
2022-07-27T06:05:28.085Z,96.61
2022-07-27T06:06:28.029Z,96.80
2022-07-27T06:07:27.981Z,96.80
2022-07-27T06:08:27.945Z,96.42
2022-07-27T06:09:27.893Z,96.70
2022-07-27T06:10:27.877Z,96.51
2022-07-27T06:11:27.796Z,96.70
2022-07-27T06:12:30.239Z,96.51
2022-07-27T06:13:28.516Z,96.42
2022-07-27T06:14:27.640Z,96.13
2022-07-27T06:15:27.581Z,96.13
2022-07-27T06:16:28.004Z,95.94
2022-07-27T06:17:27.479Z,95.84
2022-07-27T06:18:27.427Z,95.36
2022-07-27T06:19:36.011Z,95.65
2022-07-27T06:20:27.446Z,95.36
2022-07-27T06:21:27.293Z,95.17
2022-07-27T06:22:27.229Z,95.36
2022-07-27T06:23:27.194Z,95.55
2022-07-27T06:24:27.131Z,95.26
2022-07-27T06:25:33.981Z,95.55
2022-07-27T06:26:27.046Z,95.55
2022-07-27T06:27:29.616Z,95.26
2022-07-27T06:28:26.944Z,95.26
2022-07-27T06:29:26.881Z,95.75
2022-07-27T06:30:26.871Z,94.45
2022-07-27T06:31:26.863Z,94.31
2022-07-27T06:32:26.734Z,94.54
2022-07-27T06:33:26.685Z,94.54
2022-07-27T06:34:26.632Z,94.74
2022-07-27T06:35:26.598Z,95.03
2022-07-27T06:36:26.552Z,94.45
2022-07-27T06:37:26.483Z,93.87
2022-07-27T06:38:26.432Z,94.07
2022-07-27T06:39:26.385Z,94.45
2022-07-27T06:40:29.592Z,93.77
2022-07-27T06:41:26.299Z,94.21
2022-07-27T06:42:26.237Z,93.82
2022-07-27T06:43:26.187Z,93.44
2022-07-27T06:44:26.153Z,92.57
2022-07-27T06:45:26.097Z,93.15
2022-07-27T06:46:26.180Z,92.96
2022-07-27T06:47:28.788Z,92.81
2022-07-27T06:48:25.940Z,92.52
2022-07-27T06:49:25.966Z,92.33
2022-07-27T06:50:25.886Z,92.05
2022-07-27T06:51:25.789Z,92.14
2022-07-27T06:52:25.746Z,92.24
2022-07-27T06:53:25.706Z,91.85
2022-07-27T06:54:25.656Z,91.85
2022-07-27T06:55:25.593Z,91.32
2022-07-27T06:56:25.561Z,91.42
2022-07-27T06:57:25.538Z,91.03
2022-07-27T06:58:25.448Z,90.84
2022-07-27T06:59:25.398Z,90.94
2022-07-27T07:00:25.394Z,90.84
2022-07-27T07:01:25.346Z,90.17
2022-07-27T07:02:25.245Z,89.98
2022-07-27T07:03:25.491Z,89.50
2022-07-27T07:04:25.435Z,89.11
2022-07-27T07:05:25.117Z,89.06
2022-07-27T07:06:25.067Z,89.30
2022-07-27T07:07:25.004Z,89.50
2022-07-27T07:08:24.954Z,89.21
2022-07-27T07:09:24.906Z,89.11
2022-07-27T07:10:25.007Z,88.63
2022-07-27T07:11:24.808Z,89.01
2022-07-27T07:12:24.758Z,89.30
2022-07-27T07:13:24.708Z,89.21
2022-07-27T07:14:24.675Z,89.15
2022-07-27T07:15:24.616Z,88.29
2022-07-27T07:16:24.645Z,89.01
2022-07-27T07:17:24.513Z,89.15
2022-07-27T07:18:24.483Z,88.39
2022-07-27T07:19:24.417Z,88.48
2022-07-27T07:20:24.442Z,88.57
2022-07-27T07:21:24.320Z,88.48
2022-07-27T07:22:24.273Z,88.77
2022-07-27T07:23:24.234Z,88.10
2022-07-27T07:24:24.175Z,88.10
2022-07-27T07:25:24.143Z,87.76
2022-07-27T07:26:24.076Z,87.76
2022-07-27T07:27:24.028Z,87.08
2022-07-27T07:28:23.993Z,87.46
2022-07-27T07:29:23.929Z,87.08
2022-07-27T07:30:23.895Z,86.99
2022-07-27T07:31:23.863Z,86.69
2022-07-27T07:32:23.787Z,87.08
2022-07-27T07:33:23.738Z,87.08
2022-07-27T07:34:23.688Z,86.41
2022-07-27T07:35:23.649Z,86.89
2022-07-27T07:36:23.606Z,86.45
2022-07-27T07:37:23.546Z,85.64
2022-07-27T07:38:23.497Z,86.55
2022-07-27T07:39:27.820Z,86.45
2022-07-27T07:40:52.067Z,85.78
2022-07-27T07:41:23.353Z,85.49
2022-07-27T07:42:23.303Z,85.39
2022-07-27T07:43:23.271Z,85.34
2022-07-27T07:44:23.214Z,85.43
2022-07-27T07:45:23.159Z,84.66
2022-07-27T07:46:23.191Z,84.86
2022-07-27T07:47:23.062Z,84.18
2022-07-27T07:48:23.028Z,84.09
2022-07-27T07:49:39.494Z,84.47
2022-07-27T07:50:22.934Z,84.56
2022-07-27T07:51:22.870Z,83.51
2022-07-27T07:52:22.824Z,84.28
2022-07-27T07:53:22.862Z,83.99
2022-07-27T07:54:22.753Z,84.18
2022-07-27T07:55:22.678Z,83.84
2022-07-27T07:56:22.644Z,83.51
2022-07-27T07:57:22.582Z,82.68
2022-07-27T07:58:22.534Z,83.31
2022-07-27T07:59:22.488Z,83.31
2022-07-27T08:00:22.472Z,83.22
2022-07-27T08:01:22.453Z,82.78
2022-07-27T08:02:22.343Z,83.55
2022-07-27T08:03:22.435Z,82.78
2022-07-27T08:04:22.263Z,82.54
2022-07-27T08:05:22.199Z,82.29
2022-07-27T08:06:22.152Z,82.68
2022-07-27T08:07:22.105Z,81.91
2022-07-27T08:08:24.811Z,81.81
2022-07-27T08:09:22.027Z,82.29
2022-07-27T08:10:22.088Z,82.20
2022-07-27T08:11:21.917Z,82.68
2022-07-27T08:12:21.869Z,82.29
2022-07-27T08:13:22.589Z,82.59
2022-07-27T08:14:21.792Z,82.20
2022-07-27T08:15:21.726Z,82.16
2022-07-27T08:16:21.742Z,82.20
2022-07-27T08:17:21.627Z,81.48
2022-07-27T08:18:21.582Z,82.29
2022-07-27T08:19:21.534Z,82.16
2022-07-27T08:20:21.581Z,82.64
2022-07-27T08:21:21.455Z,82.49
2022-07-27T08:22:21.391Z,81.77
2022-07-27T08:23:21.344Z,82.10
2022-07-27T08:24:21.297Z,81.96
2022-07-27T08:25:21.258Z,82.26
2022-07-27T08:26:21.216Z,82.06
2022-07-27T08:27:21.170Z,81.87
2022-07-27T08:28:21.137Z,82.06
2022-07-27T08:29:23.071Z,82.26
2022-07-27T08:30:21.026Z,81.96
2022-07-27T08:31:24.513Z,82.12
2022-07-27T08:32:20.965Z,82.45
2022-07-27T08:33:20.883Z,82.83
2022-07-27T08:34:20.819Z,82.35
2022-07-27T08:35:20.772Z,82.35
2022-07-27T08:36:20.726Z,82.89
2022-07-27T08:37:20.691Z,82.83
2022-07-27T08:38:20.632Z,82.45
2022-07-27T08:40:05.394Z,81.96
2022-07-27T08:41:20.486Z,81.62
2022-07-27T08:42:20.454Z,81.04
2022-07-27T08:43:25.179Z,80.79
2022-07-27T08:44:20.361Z,79.58
2022-07-27T08:45:20.299Z,78.23
2022-07-27T08:46:20.312Z,77.88
2022-07-27T08:47:20.217Z,77.30
2022-07-27T08:48:20.157Z,75.57
2022-07-27T08:49:20.173Z,76.28
2022-07-27T08:50:20.057Z,75.79
2022-07-27T08:51:20.018Z,75.02
2022-07-27T08:52:19.983Z,74.16
2022-07-27T08:53:19.918Z,74.41
2022-07-27T08:54:19.873Z,74.31
2022-07-27T08:55:19.831Z,73.58
2022-07-27T08:56:19.780Z,73.19
2022-07-27T08:57:19.746Z,72.90
2022-07-27T08:58:19.683Z,72.71
2022-07-27T08:59:20.406Z,73.58
2022-07-27T09:00:19.755Z,72.61
2022-07-27T09:01:19.665Z,72.71
2022-07-27T09:02:19.665Z,72.80
2022-07-27T09:03:20.831Z,72.96
2022-07-27T09:04:19.401Z,73.54
2022-07-27T09:05:19.370Z,73.83
2022-07-27T09:06:19.307Z,74.02
2022-07-27T09:07:19.262Z,73.25
2022-07-27T09:08:19.236Z,73.54
2022-07-27T09:09:19.168Z,74.41
2022-07-27T09:10:19.120Z,73.28
2022-07-27T09:11:19.072Z,72.84
2022-07-27T09:12:19.027Z,72.58
2022-07-27T09:13:18.996Z,71.84
2022-07-27T09:14:18.934Z,70.24
2022-07-27T09:15:18.885Z,69.89
2022-07-27T09:16:20.444Z,68.37
2022-07-27T09:17:49.316Z,67.69
2022-07-27T09:18:18.815Z,66.47
2022-07-27T09:19:18.732Z,65.63
2022-07-27T09:20:19.301Z,65.43
2022-07-27T09:21:18.617Z,64.75
2022-07-27T09:22:18.564Z,64.47
2022-07-27T09:23:18.543Z,64.50
2022-07-27T09:24:44.477Z,64.23
2022-07-27T09:25:18.473Z,63.53
2022-07-27T09:26:30.985Z,62.75
2022-07-27T09:27:18.338Z,63.04
2022-07-27T09:28:18.294Z,63.59
2022-07-27T09:29:18.265Z,64.24
2022-07-27T09:30:18.208Z,63.95
2022-07-27T09:31:18.262Z,64.14
2022-07-27T09:32:18.129Z,64.24
2022-07-27T09:33:18.070Z,65.11
2022-07-27T09:34:18.037Z,64.95
2022-07-27T09:35:17.976Z,63.72
2022-07-27T09:36:17.953Z,63.23
2022-07-27T09:37:17.897Z,62.98
2022-07-27T09:38:17.847Z,62.68
2022-07-27T09:39:18.022Z,62.13
2022-07-27T09:40:24.272Z,61.07
2022-07-27T09:41:17.710Z,60.31
2022-07-27T09:42:52.498Z,61.38
2022-07-27T09:44:19.762Z,60.41
2022-07-27T09:44:34.732Z,60.41
2022-07-27T09:45:17.551Z,60.31
2022-07-27T09:46:17.519Z,60.12
2022-07-27T09:47:17.446Z,59.70
2022-07-27T09:48:17.400Z,60.48
2022-07-27T09:49:17.432Z,60.19
2022-07-27T09:50:17.346Z,61.25
2022-07-27T09:51:58.162Z,60.80
2022-07-27T09:52:17.229Z,60.90
2022-07-27T09:53:40.846Z,60.02
2022-07-27T09:54:17.152Z,59.70
2022-07-27T09:55:17.098Z,60.00
2022-07-27T09:56:17.050Z,60.58
2022-07-27T09:57:17.014Z,61.04
2022-07-27T09:58:16.978Z,60.16
2022-07-27T09:59:16.953Z,60.35
2022-07-27T10:00:16.874Z,60.06
2022-07-27T10:01:16.895Z,60.13
2022-07-27T10:02:16.906Z,60.25
2022-07-27T10:03:16.742Z,60.03
2022-07-27T10:04:17.344Z,60.81
2022-07-27T10:05:16.703Z,61.17
2022-07-27T10:06:16.630Z,60.97
2022-07-27T10:07:16.569Z,60.39
2022-07-27T10:08:16.534Z,61.07
2022-07-27T10:09:16.484Z,61.07
2022-07-27T10:10:16.449Z,60.39
2022-07-27T10:11:16.392Z,60.97
2022-07-27T10:12:16.351Z,60.78
2022-07-27T10:13:16.322Z,61.46
2022-07-27T10:14:16.440Z,61.46
2022-07-27T10:15:16.217Z,61.91
2022-07-27T10:16:16.309Z,61.07
2022-07-27T10:17:16.150Z,59.61
2022-07-27T10:18:16.093Z,58.79
2022-07-27T10:19:16.045Z,58.79
2022-07-27T10:20:16.004Z,57.92
2022-07-27T10:21:15.957Z,57.53
2022-07-27T10:22:15.930Z,57.79
2022-07-27T10:23:15.873Z,58.05
2022-07-27T10:24:16.109Z,58.25
2022-07-27T10:25:15.786Z,57.96
2022-07-27T10:26:15.757Z,58.51
2022-07-27T10:27:15.697Z,58.31
2022-07-27T10:28:15.664Z,58.41
2022-07-27T10:29:15.611Z,58.70
2022-07-27T10:30:15.567Z,59.97
2022-07-27T10:31:15.566Z,59.80
2022-07-27T10:32:15.497Z,59.70
2022-07-27T10:33:15.436Z,58.28
2022-07-27T10:34:15.794Z,58.18
2022-07-27T10:35:15.355Z,57.92
2022-07-27T10:36:16.933Z,57.82
2022-07-27T10:37:15.278Z,57.65
2022-07-27T10:38:15.231Z,56.59
2022-07-27T10:39:15.179Z,56.22
2022-07-27T10:40:15.144Z,55.74
2022-07-27T10:41:15.093Z,55.71
2022-07-27T10:42:15.099Z,55.98
2022-07-27T10:43:15.008Z,56.56
2022-07-27T10:44:25.043Z,56.56
2022-07-27T10:45:14.943Z,56.46
2022-07-27T10:46:15.010Z,56.43
2022-07-27T10:47:14.885Z,57.21
2022-07-27T10:48:14.807Z,56.72
2022-07-27T10:49:14.842Z,57.18
2022-07-27T10:50:14.741Z,57.67
2022-07-27T10:51:14.719Z,58.15
2022-07-27T10:52:14.684Z,57.50
2022-07-27T10:53:14.625Z,57.79
2022-07-27T10:54:14.545Z,56.43
2022-07-27T10:55:14.509Z,56.62
2022-07-27T10:56:14.468Z,56.95
2022-07-27T10:57:14.451Z,56.46
2022-07-27T10:58:14.435Z,55.80
2022-07-27T10:59:14.381Z,55.83
2022-07-27T11:00:19.448Z,55.74
2022-07-27T11:01:14.761Z,55.47
2022-07-27T11:02:14.208Z,54.11
2022-07-27T11:03:14.161Z,54.03
2022-07-27T11:04:14.650Z,52.97
2022-07-27T11:05:42.524Z,51.63
2022-07-27T11:07:24.373Z,52.22
2022-07-27T11:08:36.034Z,51.26
2022-07-27T11:10:13.905Z,51.39
2022-07-27T11:11:13.903Z,50.80
2022-07-27T11:12:13.797Z,51.29
2022-07-27T11:13:13.889Z,50.92
2022-07-27T11:14:14.059Z,51.02
2022-07-27T11:15:13.651Z,49.76
2022-07-27T11:16:23.931Z,49.93
2022-07-27T11:18:15.052Z,50.19
2022-07-27T11:19:13.928Z,51.07
2022-07-27T11:20:13.960Z,51.46
2022-07-27T11:21:13.407Z,51.26
2022-07-27T11:22:28.348Z,51.17
2022-07-27T11:23:49.959Z,51.07
2022-07-27T11:24:13.604Z,51.26
2022-07-27T11:25:13.369Z,50.38
2022-07-27T11:26:13.240Z,50.41
2022-07-27T11:27:16.234Z,49.93
2022-07-27T11:28:13.165Z,49.17
2022-07-27T11:29:13.601Z,49.17
2022-07-27T11:30:13.066Z,48.41
2022-07-27T11:31:13.072Z,48.51
2022-07-27T11:32:12.997Z,48.39
2022-07-27T11:33:12.933Z,48.95
2022-07-27T11:34:13.316Z,48.05
2022-07-27T11:35:17.680Z,49.02
2022-07-27T11:36:12.788Z,49.99
2022-07-27T11:37:12.756Z,50.29
2022-07-27T11:38:12.748Z,49.15
2022-07-27T11:39:14.839Z,49.24
2022-07-27T11:40:37.480Z,49.15
2022-07-27T11:41:28.300Z,49.05
2022-07-27T11:42:17.703Z,49.07
2022-07-27T11:43:12.531Z,48.88
2022-07-27T11:44:12.866Z,48.49
2022-07-27T11:45:12.479Z,48.10
2022-07-27T11:46:12.547Z,47.90
2022-07-27T11:47:12.375Z,48.02
2022-07-27T11:48:12.302Z,47.83
2022-07-27T11:49:12.293Z,47.44
2022-07-27T11:50:12.338Z,47.92
2022-07-27T11:51:12.186Z,48.61
2022-07-27T11:52:12.188Z,48.02
2022-07-27T11:53:12.145Z,47.53
2022-07-27T11:54:12.083Z,46.58
2022-07-27T11:55:13.538Z,46.48
2022-07-27T11:56:11.986Z,46.07
2022-07-27T11:57:11.958Z,46.17
2022-07-27T11:58:11.950Z,46.26
2022-07-27T11:59:12.012Z,46.46
2022-07-27T12:00:11.813Z,46.36
2022-07-27T12:01:11.797Z,46.66
2022-07-27T12:02:11.829Z,46.75
2022-07-27T12:03:11.694Z,47.05
2022-07-27T12:04:11.700Z,47.14
2022-07-27T12:05:11.667Z,45.34
2022-07-27T12:06:11.593Z,46.88
2022-07-27T12:07:11.553Z,47.46
2022-07-27T12:08:11.512Z,48.14
2022-07-27T12:09:11.762Z,48.63
2022-07-27T12:10:11.441Z,48.27
2022-07-27T12:11:11.449Z,48.44
2022-07-27T12:12:11.367Z,47.46
2022-07-27T12:13:11.288Z,47.36
2022-07-27T12:14:11.273Z,47.83
2022-07-27T12:15:28.446Z,48.32
2022-07-27T12:16:13.485Z,48.93
2022-07-27T12:17:11.218Z,48.05
2022-07-27T12:18:11.112Z,47.46
2022-07-27T12:19:11.398Z,46.97
2022-07-27T12:20:11.027Z,47.27
2022-07-27T12:21:11.060Z,47.36
2022-07-27T12:22:10.948Z,47.25
2022-07-27T12:23:10.887Z,47.07
2022-07-27T12:24:10.859Z,47.95
2022-07-27T12:25:15.912Z,48.07
2022-07-27T12:26:10.746Z,47.58
2022-07-27T12:27:10.724Z,47.41
2022-07-27T12:28:10.691Z,46.36
2022-07-27T12:29:10.982Z,46.36
2022-07-27T12:30:10.642Z,46.39
2022-07-27T12:31:10.638Z,45.70
2022-07-27T12:32:10.535Z,45.31
2022-07-27T12:33:10.513Z,44.94
2022-07-27T12:34:10.462Z,44.35
2022-07-27T12:35:10.400Z,44.35
2022-07-27T12:36:10.402Z,44.94
2022-07-27T12:37:10.314Z,44.82
2022-07-27T12:38:10.297Z,44.24
2022-07-27T12:39:10.460Z,44.92
2022-07-27T12:40:10.194Z,44.82
2022-07-27T12:41:10.161Z,44.92
2022-07-27T12:42:10.122Z,45.21
2022-07-27T12:43:10.096Z,44.31
2022-07-27T12:44:10.047Z,44.68
2022-07-27T12:45:09.987Z,45.07
2022-07-27T12:46:10.063Z,45.56
2022-07-27T12:47:09.951Z,45.75
2022-07-27T12:48:09.890Z,46.02
2022-07-27T12:49:10.214Z,46.22
2022-07-27T12:50:09.807Z,46.51
2022-07-27T12:51:09.762Z,46.22
2022-07-27T12:52:09.739Z,46.02
2022-07-27T12:53:09.710Z,45.64
2022-07-27T12:54:09.659Z,45.36
2022-07-27T12:55:15.165Z,45.07
2022-07-27T12:56:09.563Z,45.46